Time;durP1;ratioP1;P1;durP2;ratioP2;P2;SDS_P1;SDS_P2;PMS_P1;PMS_P2;Temp;Humidity;BMP_temperature;BMP_pressure;BME280_temperature;BME280_humidity;BME280_pressure;Samples;Min_cycle;Max_cycle;Signal;HPM_P1;HPM_P2
2023/12/09 00:00:10;;;;;;;;;;;12.80;77.00;;;;;;4975855;28;19913;-78
2023/12/09 00:02:35;;;;;;;;;;;12.80;77.00;;;;;;4975979;28;19906;-78
2023/12/09 00:05:02;;;;;;;;;;;12.80;77.00;;;;;;4975806;28;20282;-78
2023/12/09 00:07:27;;;;;;;;;;;12.80;77.00;;;;;;4994160;28;19906;-78
2023/12/09 00:09:52;;;;;;;;;;;12.80;77.20;;;;;;4996797;28;20389;-79
2023/12/09 00:12:18;;;;;;;;;;;12.80;77.00;;;;;;4997350;28;19909;-78
2023/12/09 00:14:43;;;;;;;;;;;12.90;77.10;;;;;;4979840;28;19979;-79
2023/12/09 00:17:09;;;;;;;;;;;12.80;77.00;;;;;;4979331;28;19959;-78
2023/12/09 00:19:34;;;;;;;;;;;12.80;77.00;;;;;;4996959;28;19988;-78
2023/12/09 00:22:00;;;;;;;;;;;12.80;77.00;;;;;;4979289;28;20016;-78
2023/12/09 00:24:25;;;;;;;;;;;12.80;77.10;;;;;;4979203;28;19931;-79
2023/12/09 00:26:50;;;;;;;;;;;12.80;77.10;;;;;;4979279;28;20426;-79
2023/12/09 00:29:16;;;;;;;;;;;12.80;77.10;;;;;;4979177;28;19996;-79
2023/12/09 00:31:41;;;;;;;;;;;12.80;77.10;;;;;;4979374;28;19912;-78
2023/12/09 00:34:07;;;;;;;;;;;12.80;77.10;;;;;;4996214;28;19921;-78
2023/12/09 00:36:32;;;;;;;;;;;12.80;77.10;;;;;;4996501;28;19909;-79
2023/12/09 00:38:57;;;;;;;;;;;12.80;77.10;;;;;;4978479;28;19913;-78
2023/12/09 00:41:24;;;;;;;;;;;12.80;77.10;;;;;;4978759;28;19917;-79
2023/12/09 00:43:49;;;;;;;;;;;12.80;77.10;;;;;;4996181;28;20288;-78
2023/12/09 00:46:15;;;;;;;;;;;12.80;77.10;;;;;;4978764;28;19913;-79
2023/12/09 00:48:40;;;;;;;;;;;12.80;77.10;;;;;;4995805;28;20409;-79
2023/12/09 00:51:06;;;;;;;;;;;12.80;77.10;;;;;;4978462;28;20293;-78
2023/12/09 00:53:31;;;;;;;;;;;12.80;77.10;;;;;;4978677;28;19912;-79
2023/12/09 00:55:57;;;;;;;;;;;12.80;77.10;;;;;;4978734;28;20001;-78
2023/12/09 00:58:22;;;;;;;;;;;12.80;77.20;;;;;;4996167;28;19916;-78
2023/12/09 01:00:47;;;;;;;;;;;12.80;77.20;;;;;;4996114;28;20350;-78
2023/12/09 01:03:13;;;;;;;;;;;12.80;77.20;;;;;;4996035;28;19996;-78
2023/12/09 01:05:38;;;;;;;;;;;12.80;77.10;;;;;;4996065;28;19952;-78
2023/12/09 01:08:04;;;;;;;;;;;12.80;77.10;;;;;;4978579;28;20001;-78
2023/12/09 01:10:29;;;;;;;;;;;12.80;77.10;;;;;;4995727;28;20366;-78
2023/12/09 01:12:54;;;;;;;;;;;12.80;77.10;;;;;;4978572;28;19906;-78
2023/12/09 01:15:20;;;;;;;;;;;12.80;77.10;;;;;;4978525;28;19906;-78
2023/12/09 01:17:45;;;;;;;;;;;12.70;77.10;;;;;;4978529;28;19910;-78
2023/12/09 01:20:11;;;;;;;;;;;12.70;77.10;;;;;;4977355;28;19913;-78
2023/12/09 01:22:36;;;;;;;;;;;12.80;77.10;;;;;;4978446;28;19933;-79
2023/12/09 01:25:02;;;;;;;;;;;12.80;77.20;;;;;;4978497;28;19932;-78
2023/12/09 01:27:27;;;;;;;;;;;12.80;77.10;;;;;;4978508;28;20004;-78
2023/12/09 01:29:53;;;;;;;;;;;12.70;77.10;;;;;;4978210;28;19928;-80
2023/12/09 01:32:18;;;;;;;;;;;12.70;77.10;;;;;;4995772;28;20485;-79
2023/12/09 01:34:44;;;;;;;;;;;12.80;77.10;;;;;;4978206;28;19914;-78
2023/12/09 01:37:10;;;;;;;;;;;12.70;77.10;;;;;;4978177;28;19910;-79
2023/12/09 01:39:37;;;;;;;;;;;12.80;77.20;;;;;;4995287;28;19906;-78
2023/12/09 01:42:02;;;;;;;;;;;12.70;77.10;;;;;;4977980;28;20004;-79
2023/12/09 01:44:28;;;;;;;;;;;12.80;77.20;;;;;;4978069;28;19933;-78
2023/12/09 01:46:53;;;;;;;;;;;12.70;77.10;;;;;;4995611;28;19910;-78
2023/12/09 01:49:19;;;;;;;;;;;12.70;77.10;;;;;;4977658;28;19913;-78
2023/12/09 01:51:45;;;;;;;;;;;12.80;77.20;;;;;;4995350;28;19909;-79
2023/12/09 01:54:10;;;;;;;;;;;12.80;77.20;;;;;;4977928;28;19905;-78
2023/12/09 01:56:36;;;;;;;;;;;12.70;77.10;;;;;;4977618;28;19917;-77
2023/12/09 01:59:02;;;;;;;;;;;12.70;77.20;;;;;;4977362;28;19929;-79
2023/12/09 02:01:27;;;;;;;;;;;12.80;77.20;;;;;;4977458;28;19905;-78
2023/12/09 02:03:53;;;;;;;;;;;12.70;77.20;;;;;;4977516;28;19953;-78
2023/12/09 02:06:18;;;;;;;;;;;12.70;77.20;;;;;;4977667;28;19960;-79
2023/12/09 02:08:44;;;;;;;;;;;12.70;77.20;;;;;;4994709;28;19909;-79
2023/12/09 02:11:17;;;;;;;;;;;12.70;77.20;;;;;;4977611;28;19909;-78
2023/12/09 02:13:54;;;;;;;;;;;12.70;77.20;;;;;;4994937;28;19912;-79
2023/12/09 02:16:36;;;;;;;;;;;12.70;77.20;;;;;;4977492;28;19944;-78
2023/12/09 02:19:03;;;;;;;;;;;12.70;77.20;;;;;;4977514;28;19945;-78
2023/12/09 02:21:28;;;;;;;;;;;12.80;77.30;;;;;;4977172;28;19913;-79
2023/12/09 02:23:54;;;;;;;;;;;12.70;77.20;;;;;;4977571;28;19941;-78
2023/12/09 02:26:24;;;;;;;;;;;12.70;77.20;;;;;;4977405;28;19992;-78
2023/12/09 02:28:52;;;;;;;;;;;12.70;77.20;;;;;;4976960;28;19906;-78
2023/12/09 02:31:23;;;;;;;;;;;12.80;77.20;;;;;;4977060;28;19934;-79
2023/12/09 02:33:49;;;;;;;;;;;12.70;77.20;;;;;;4994418;28;19913;-78
2023/12/09 02:36:17;;;;;;;;;;;12.80;77.80;;;;;;4994474;28;19909;-78
2023/12/09 02:38:42;;;;;;;;;;;12.70;77.20;;;;;;4994260;28;19910;-78
2023/12/09 02:41:08;;;;;;;;;;;12.70;77.20;;;;;;4977013;28;19952;-78
2023/12/09 02:43:34;;;;;;;;;;;12.80;77.30;;;;;;4977119;28;19906;-79
2023/12/09 02:45:59;;;;;;;;;;;12.70;77.30;;;;;;4976962;28;19956;-78
2023/12/09 02:48:25;;;;;;;;;;;12.70;77.20;;;;;;4976385;28;19964;-78
2023/12/09 02:50:50;;;;;;;;;;;12.70;77.20;;;;;;4976508;28;20294;-78
2023/12/09 02:53:16;;;;;;;;;;;12.70;77.20;;;;;;4994013;28;19909;-78
2023/12/09 02:55:41;;;;;;;;;;;12.70;77.20;;;;;;4976472;28;19909;-79
2023/12/09 02:58:07;;;;;;;;;;;12.70;77.20;;;;;;4993982;28;19910;-79
2023/12/09 03:00:32;;;;;;;;;;;12.70;77.20;;;;;;4993578;28;19912;-78
2023/12/09 03:02:58;;;;;;;;;;;12.70;77.20;;;;;;4976338;28;19912;-78
2023/12/09 03:05:23;;;;;;;;;;;12.70;77.20;;;;;;4993549;28;19963;-78
2023/12/09 03:07:48;;;;;;;;;;;12.70;77.20;;;;;;4976252;28;19906;-77
2023/12/09 03:10:14;;;;;;;;;;;12.70;77.20;;;;;;4976045;28;19909;-79
2023/12/09 03:12:39;;;;;;;;;;;12.70;77.20;;;;;;4976067;28;19910;-79
2023/12/09 03:15:06;;;;;;;;;;;12.70;77.20;;;;;;4975935;28;20429;-79
2023/12/09 03:17:32;;;;;;;;;;;12.70;77.30;;;;;;4976335;28;19910;-78
2023/12/09 03:19:58;;;;;;;;;;;12.70;77.20;;;;;;4976084;28;19916;-79
2023/12/09 03:22:23;;;;;;;;;;;12.70;77.20;;;;;;4975874;28;19918;-78
2023/12/09 03:24:49;;;;;;;;;;;12.70;77.30;;;;;;4993580;28;19906;-78
2023/12/09 03:27:14;;;;;;;;;;;12.70;77.20;;;;;;4976233;28;19920;-79
2023/12/09 03:29:40;;;;;;;;;;;12.70;77.20;;;;;;4975960;28;19920;-79
2023/12/09 03:32:06;;;;;;;;;;;12.70;77.30;;;;;;4976312;28;19905;-78
2023/12/09 03:34:31;;;;;;;;;;;12.70;77.30;;;;;;4994045;28;20350;-78
2023/12/09 03:36:57;;;;;;;;;;;12.70;77.30;;;;;;4993543;28;20681;-79
2023/12/09 03:39:22;;;;;;;;;;;12.70;77.30;;;;;;4976175;28;20282;-78
2023/12/09 03:41:47;;;;;;;;;;;12.70;77.30;;;;;;4976033;28;19906;-78
2023/12/09 03:44:13;;;;;;;;;;;12.70;77.30;;;;;;4980047;28;19906;-78
2023/12/09 03:46:38;;;;;;;;;;;12.70;77.30;;;;;;4980444;28;19915;-78
2023/12/09 03:49:04;;;;;;;;;;;12.70;77.30;;;;;;4979760;28;19959;-78
2023/12/09 03:51:29;;;;;;;;;;;12.70;77.30;;;;;;4977261;28;19917;-78
2023/12/09 03:53:54;;;;;;;;;;;12.70;77.30;;;;;;4979646;28;19917;-79
2023/12/09 03:56:23;;;;;;;;;;;12.70;77.30;;;;;;4991807;28;19909;-78
2023/12/09 03:58:48;;;;;;;;;;;12.70;77.30;;;;;;5000880;28;19913;-79
2023/12/09 04:01:14;;;;;;;;;;;12.70;77.30;;;;;;4979561;28;19909;-78
2023/12/09 04:03:39;;;;;;;;;;;12.70;77.30;;;;;;4979670;28;19913;-77
2023/12/09 04:06:05;;;;;;;;;;;12.70;77.30;;;;;;4979821;28;19921;-79
2023/12/09 04:08:30;;;;;;;;;;;12.70;77.30;;;;;;4979536;28;20023;-78
2023/12/09 04:10:56;;;;;;;;;;;12.70;77.30;;;;;;4996970;28;19984;-78
2023/12/09 04:13:21;;;;;;;;;;;12.70;77.30;;;;;;4979281;28;19929;-78
2023/12/09 04:15:47;;;;;;;;;;;12.70;77.30;;;;;;4979170;28;19906;-79
2023/12/09 04:18:13;;;;;;;;;;;12.70;77.40;;;;;;4978847;28;19997;-78
2023/12/09 04:20:38;;;;;;;;;;;12.70;77.30;;;;;;4978594;28;19906;-79
2023/12/09 04:23:04;;;;;;;;;;;12.70;77.40;;;;;;4996558;28;19914;-79
2023/12/09 04:25:30;;;;;;;;;;;12.70;77.40;;;;;;4978911;28;19953;-78
2023/12/09 04:27:56;;;;;;;;;;;12.70;77.40;;;;;;4978864;28;20334;-78
2023/12/09 04:30:24;;;;;;;;;;;12.70;77.30;;;;;;4978725;28;20428;-79
2023/12/09 04:32:50;;;;;;;;;;;12.70;77.30;;;;;;4979170;28;19988;-79
2023/12/09 04:35:15;;;;;;;;;;;12.70;77.40;;;;;;4978775;28;20393;-77
2023/12/09 04:37:41;;;;;;;;;;;12.70;77.40;;;;;;4996243;28;19909;-78
2023/12/09 04:40:10;;;;;;;;;;;12.70;77.40;;;;;;4978573;28;19909;-77
2023/12/09 04:42:36;;;;;;;;;;;12.70;77.40;;;;;;4978620;28;19992;-79
2023/12/09 04:45:02;;;;;;;;;;;12.70;77.40;;;;;;4978666;28;19910;-79
2023/12/09 04:47:28;;;;;;;;;;;12.70;77.40;;;;;;4978793;28;19921;-78
2023/12/09 04:49:53;;;;;;;;;;;12.70;77.40;;;;;;4978978;28;19906;-78
2023/12/09 04:52:19;;;;;;;;;;;12.70;77.40;;;;;;4978912;28;19912;-78
2023/12/09 04:54:44;;;;;;;;;;;12.70;77.40;;;;;;4978793;28;19909;-78
2023/12/09 04:57:10;;;;;;;;;;;12.70;77.40;;;;;;4978729;28;19910;-78
2023/12/09 04:59:35;;;;;;;;;;;12.70;77.40;;;;;;4996499;28;19912;-79
2023/12/09 05:02:01;;;;;;;;;;;12.70;77.40;;;;;;4996464;28;19964;-78
2023/12/09 05:04:26;;;;;;;;;;;12.70;77.40;;;;;;4978936;28;19909;-78
2023/12/09 05:06:51;;;;;;;;;;;12.70;77.40;;;;;;4978817;28;19959;-78
2023/12/09 05:09:17;;;;;;;;;;;12.70;77.40;;;;;;4978566;28;19909;-78
2023/12/09 05:11:42;;;;;;;;;;;12.70;77.40;;;;;;4978463;28;19905;-78
2023/12/09 05:14:08;;;;;;;;;;;12.70;77.50;;;;;;4978470;28;19906;-78
2023/12/09 05:16:33;;;;;;;;;;;12.60;77.40;;;;;;4978265;28;19960;-79
2023/12/09 05:18:59;;;;;;;;;;;12.70;77.50;;;;;;4977516;28;19996;-78
2023/12/09 05:21:24;;;;;;;;;;;12.70;77.50;;;;;;4976251;28;19976;-79
2023/12/09 05:23:49;;;;;;;;;;;12.70;77.50;;;;;;4976300;28;19909;-79
2023/12/09 05:26:25;;;;;;;;;;;12.70;77.50;;;;;;4975638;28;19914;-79
2023/12/09 05:28:51;;;;;;;;;;;12.70;77.50;;;;;;4973105;28;20008;-80
2023/12/09 05:31:17;;;;;;;;;;;12.70;77.50;;;;;;4975096;28;20004;-81
2023/12/09 05:33:42;;;;;;;;;;;12.70;77.50;;;;;;4974786;28;19909;-80
2023/12/09 05:36:08;;;;;;;;;;;12.70;77.50;;;;;;4974688;28;20022;-77
2023/12/09 05:38:33;;;;;;;;;;;12.70;77.50;;;;;;4974829;28;20282;-80
2023/12/09 05:40:59;;;;;;;;;;;12.70;77.50;;;;;;4974636;28;19910;-79
2023/12/09 05:43:24;;;;;;;;;;;12.70;77.50;;;;;;4974880;28;20454;-78
2023/12/09 05:45:49;;;;;;;;;;;12.70;77.50;;;;;;4991984;28;19910;-78
2023/12/09 05:48:15;;;;;;;;;;;12.70;77.50;;;;;;4974661;28;19910;-77
2023/12/09 05:50:40;;;;;;;;;;;12.70;77.50;;;;;;4975256;28;19905;-79
2023/12/09 05:53:06;;;;;;;;;;;12.70;77.60;;;;;;4972210;28;20283;-78
2023/12/09 05:55:32;;;;;;;;;;;12.70;77.50;;;;;;4974011;28;19960;-79
2023/12/09 05:57:57;;;;;;;;;;;12.70;77.50;;;;;;4973566;28;19914;-77
2023/12/09 06:00:23;;;;;;;;;;;12.70;77.60;;;;;;4974420;28;19909;-79
2023/12/09 06:02:48;;;;;;;;;;;12.70;77.50;;;;;;4974506;28;19964;-78
2023/12/09 06:05:14;;;;;;;;;;;12.70;77.50;;;;;;4973014;28;20358;-79
2023/12/09 06:07:39;;;;;;;;;;;12.70;77.50;;;;;;4990382;28;19964;-77
2023/12/09 06:10:05;;;;;;;;;;;12.70;77.60;;;;;;4972851;28;19989;-79
2023/12/09 06:12:31;;;;;;;;;;;12.70;77.50;;;;;;4972968;28;20366;-76
2023/12/09 06:14:56;;;;;;;;;;;12.70;77.50;;;;;;4972661;28;19956;-79
2023/12/09 06:17:22;;;;;;;;;;;12.70;77.50;;;;;;4973025;28;19976;-79
2023/12/09 06:19:48;;;;;;;;;;;12.70;77.50;;;;;;4972834;28;19960;-78
2023/12/09 06:22:13;;;;;;;;;;;12.70;77.50;;;;;;4973316;28;19917;-79
2023/12/09 06:24:38;;;;;;;;;;;12.70;77.50;;;;;;4974503;28;19905;-77
2023/12/09 06:27:04;;;;;;;;;;;12.70;77.50;;;;;;4975181;28;19909;-80
2023/12/09 06:29:29;;;;;;;;;;;12.70;77.50;;;;;;4991137;28;19910;-77
2023/12/09 06:31:55;;;;;;;;;;;12.70;77.50;;;;;;4972560;28;19921;-79
2023/12/09 06:34:20;;;;;;;;;;;12.70;77.60;;;;;;4990529;28;19918;-76
2023/12/09 06:36:46;;;;;;;;;;;12.70;77.60;;;;;;4973167;28;20367;-78
2023/12/09 06:39:12;;;;;;;;;;;12.70;77.50;;;;;;4990364;28;19993;-77
2023/12/09 06:41:40;;;;;;;;;;;12.70;77.60;;;;;;4973135;28;20057;-78
2023/12/09 06:44:06;;;;;;;;;;;12.70;77.60;;;;;;4973071;28;19905;-78
2023/12/09 06:46:31;;;;;;;;;;;12.70;77.60;;;;;;4990344;28;19968;-78
2023/12/09 06:48:57;;;;;;;;;;;12.70;77.50;;;;;;4972765;28;19916;-78
2023/12/09 06:51:22;;;;;;;;;;;12.60;77.50;;;;;;4990475;28;19917;-79
2023/12/09 06:53:47;;;;;;;;;;;12.60;77.50;;;;;;4973378;28;19906;-80
2023/12/09 06:56:22;;;;;;;;;;;12.60;77.50;;;;;;4972929;28;20322;-79
2023/12/09 06:58:48;;;;;;;;;;;12.70;77.50;;;;;;4972865;28;19906;-78
2023/12/09 07:01:23;;;;;;;;;;;12.70;77.60;;;;;;4972825;28;20255;-79
2023/12/09 07:03:49;;;;;;;;;;;12.60;77.60;;;;;;4973242;28;19906;-79
2023/12/09 07:06:16;;;;;;;;;;;12.60;77.50;;;;;;4972680;28;19921;-78
2023/12/09 07:08:42;;;;;;;;;;;12.60;77.50;;;;;;4990202;28;19932;-78
2023/12/09 07:11:09;;;;;;;;;;;13.50;78.00;;;;;;4973202;28;20326;-79
2023/12/09 07:13:34;;;;;;;;;;;12.60;77.50;;;;;;4972840;28;20600;-79
2023/12/09 07:16:00;;;;;;;;;;;12.70;77.50;;;;;;4972732;28;19925;-79
2023/12/09 07:18:25;;;;;;;;;;;12.70;77.50;;;;;;4972125;28;20016;-79
2023/12/09 07:20:51;;;;;;;;;;;12.70;77.50;;;;;;4972350;28;20286;-78
2023/12/09 07:23:16;;;;;;;;;;;12.70;77.40;;;;;;4972817;28;19917;-79
2023/12/09 07:25:42;;;;;;;;;;;12.60;77.40;;;;;;4972579;28;19909;-77
2023/12/09 07:28:07;;;;;;;;;;;12.70;77.50;;;;;;4990151;28;19909;-78
2023/12/09 07:30:33;;;;;;;;;;;12.70;77.40;;;;;;4990403;28;19960;-77
2023/12/09 07:32:58;;;;;;;;;;;12.70;77.40;;;;;;4972848;28;19952;-78
2023/12/09 07:35:23;;;;;;;;;;;12.70;77.40;;;;;;4990088;28;20008;-79
2023/12/09 07:37:49;;;;;;;;;;;12.70;77.40;;;;;;4972727;28;19910;-79
2023/12/09 07:40:15;;;;;;;;;;;12.70;77.30;;;;;;4989869;28;19996;-79
2023/12/09 07:42:41;;;;;;;;;;;12.70;77.30;;;;;;4972595;28;19906;-79
2023/12/09 07:45:06;;;;;;;;;;;12.70;77.30;;;;;;4972507;28;20341;-79
2023/12/09 07:47:32;;;;;;;;;;;12.70;77.30;;;;;;4989876;28;19913;-79
2023/12/09 07:49:58;;;;;;;;;;;12.70;77.30;;;;;;4990033;28;19906;-79
2023/12/09 07:52:23;;;;;;;;;;;12.70;77.20;;;;;;4990532;28;19913;-78
2023/12/09 07:54:49;;;;;;;;;;;12.70;77.20;;;;;;4991191;28;19905;-79
2023/12/09 07:57:14;;;;;;;;;;;12.70;77.20;;;;;;4973098;28;19971;-76
2023/12/09 07:59:39;;;;;;;;;;;12.70;77.10;;;;;;4973027;28;19909;-78
2023/12/09 08:02:05;;;;;;;;;;;12.70;77.10;;;;;;4971830;28;20001;-79
2023/12/09 08:04:31;;;;;;;;;;;12.70;77.10;;;;;;4971675;28;19964;-78
2023/12/09 08:06:56;;;;;;;;;;;12.70;77.00;;;;;;4971637;28;19917;-79
2023/12/09 08:09:21;;;;;;;;;;;12.70;77.00;;;;;;4988729;28;20005;-78
2023/12/09 08:11:47;;;;;;;;;;;12.70;76.90;;;;;;4971153;28;19913;-78
2023/12/09 08:14:12;;;;;;;;;;;12.80;76.90;;;;;;4971135;28;20417;-77
2023/12/09 08:16:38;;;;;;;;;;;12.80;76.80;;;;;;4988941;28;19909;-78
2023/12/09 08:19:03;;;;;;;;;;;12.80;76.80;;;;;;4971211;28;19910;-77
2023/12/09 08:21:28;;;;;;;;;;;12.80;76.80;;;;;;4971149;28;20005;-78
2023/12/09 08:23:54;;;;;;;;;;;12.80;76.80;;;;;;4971014;28;19913;-79
2023/12/09 08:26:20;;;;;;;;;;;12.80;76.70;;;;;;4970917;28;19910;-78
2023/12/09 08:28:45;;;;;;;;;;;12.80;76.60;;;;;;4972261;28;20349;-80
2023/12/09 08:31:11;;;;;;;;;;;12.90;77.10;;;;;;4974454;28;19906;-79
2023/12/09 08:33:36;;;;;;;;;;;12.90;76.50;;;;;;4974923;28;19953;-78
2023/12/09 08:36:02;;;;;;;;;;;12.90;76.50;;;;;;4974531;28;19909;-77
2023/12/09 08:38:27;;;;;;;;;;;13.00;76.30;;;;;;4974406;28;19973;-78
2023/12/09 08:40:53;;;;;;;;;;;13.00;76.30;;;;;;4991883;28;19996;-77
2023/12/09 08:43:18;;;;;;;;;;;13.00;76.30;;;;;;4974683;28;20377;-78
2023/12/09 08:45:44;;;;;;;;;;;13.10;76.20;;;;;;4992038;28;19960;-79
2023/12/09 08:48:09;;;;;;;;;;;13.10;76.10;;;;;;4992054;28;19916;-78
2023/12/09 08:50:35;;;;;;;;;;;13.10;76.00;;;;;;4992539;28;19921;-79
2023/12/09 08:53:02;;;;;;;;;;;13.10;76.00;;;;;;4992626;28;20413;-79
2023/12/09 08:55:28;;;;;;;;;;;13.20;75.80;;;;;;4970266;28;19960;-79
2023/12/09 08:57:53;;;;;;;;;;;13.20;75.90;;;;;;4994165;28;20366;-78
2023/12/09 09:00:20;;;;;;;;;;;13.20;75.60;;;;;;5011285;28;19992;-78
2023/12/09 09:02:46;;;;;;;;;;;13.20;75.60;;;;;;4994323;28;19916;-78
2023/12/09 09:05:11;;;;;;;;;;;13.20;75.60;;;;;;4994176;28;19916;-79
2023/12/09 09:07:40;;;;;;;;;;;13.20;75.80;;;;;;5011371;28;19909;-77
2023/12/09 09:10:06;;;;;;;;;;;13.10;75.80;;;;;;4993626;28;20400;-77
2023/12/09 09:12:31;;;;;;;;;;;13.10;75.90;;;;;;4993735;28;19909;-77
2023/12/09 09:14:57;;;;;;;;;;;13.10;76.00;;;;;;4993343;28;19999;-77
2023/12/09 09:17:23;;;;;;;;;;;13.10;76.00;;;;;;5010957;28;19956;-78
2023/12/09 09:19:48;;;;;;;;;;;13.10;76.10;;;;;;5010651;28;20345;-78
2023/12/09 09:22:14;;;;;;;;;;;13.10;76.10;;;;;;5010804;28;19917;-79
2023/12/09 09:24:39;;;;;;;;;;;13.10;76.20;;;;;;4993389;28;19909;-78
2023/12/09 09:27:05;;;;;;;;;;;13.00;76.20;;;;;;5010922;28;19909;-78
2023/12/09 09:29:30;;;;;;;;;;;13.00;76.20;;;;;;4993328;28;19906;-79
2023/12/09 09:31:56;;;;;;;;;;;13.00;76.30;;;;;;4993290;28;19909;-77
2023/12/09 09:34:21;;;;;;;;;;;13.00;76.30;;;;;;4993124;28;19909;-79
2023/12/09 09:36:47;;;;;;;;;;;13.10;76.30;;;;;;4992995;28;19909;-77
2023/12/09 09:39:13;;;;;;;;;;;13.00;76.20;;;;;;4997556;28;20484;-79
2023/12/09 09:41:57;;;;;;;;;;;13.00;76.20;;;;;;5010751;28;20455;-78
2023/12/09 09:44:26;;;;;;;;;;;13.00;76.20;;;;;;4994022;28;19910;-79
2023/12/09 09:46:55;;;;;;;;;;;13.00;76.30;;;;;;4993721;28;19948;-78
2023/12/09 09:49:23;;;;;;;;;;;13.00;76.20;;;;;;4993245;28;19956;-77
2023/12/09 09:51:51;;;;;;;;;;;13.10;76.80;;;;;;4993306;28;19912;-78
2023/12/09 09:54:21;;;;;;;;;;;13.10;76.20;;;;;;4993355;28;20614;-78
2023/12/09 09:56:47;;;;;;;;;;;13.10;76.00;;;;;;5010882;28;20008;-78
2023/12/09 09:59:12;;;;;;;;;;;13.20;75.90;;;;;;5011112;28;20434;-79
2023/12/09 10:01:38;;;;;;;;;;;13.30;75.90;;;;;;4993504;28;20032;-78
2023/12/09 10:04:03;;;;;;;;;;;13.30;75.80;;;;;;4993275;28;20016;-79
2023/12/09 10:06:29;;;;;;;;;;;13.40;75.60;;;;;;4992947;28;20378;-77
2023/12/09 10:08:55;;;;;;;;;;;13.40;75.50;;;;;;5011642;28;20392;-78
2023/12/09 10:11:20;;;;;;;;;;;13.40;75.30;;;;;;4992473;28;19918;-78
2023/12/09 10:13:46;;;;;;;;;;;13.50;75.30;;;;;;4993065;28;19909;-78
2023/12/09 10:16:11;;;;;;;;;;;13.50;75.10;;;;;;4975802;28;20362;-78
2023/12/09 10:18:37;;;;;;;;;;;13.50;75.10;;;;;;4973681;28;20275;-77
2023/12/09 10:21:04;;;;;;;;;;;13.60;75.10;;;;;;4990796;28;19910;-79
2023/12/09 10:23:30;;;;;;;;;;;13.60;75.10;;;;;;4990880;28;19916;-79
2023/12/09 10:25:57;;;;;;;;;;;13.60;75.00;;;;;;4973941;28;19992;-80
2023/12/09 10:28:23;;;;;;;;;;;13.60;75.00;;;;;;4973159;28;19906;-78
2023/12/09 10:30:50;;;;;;;;;;;13.60;74.90;;;;;;4973322;28;20275;-77
2023/12/09 10:33:15;;;;;;;;;;;13.60;74.90;;;;;;4990572;28;20057;-78
2023/12/09 10:35:41;;;;;;;;;;;13.60;75.00;;;;;;4973062;28;20019;-78
2023/12/09 10:38:08;;;;;;;;;;;13.60;75.00;;;;;;4972774;28;19909;-78
2023/12/09 10:40:34;;;;;;;;;;;13.60;75.10;;;;;;4972702;28;19905;-79
2023/12/09 10:43:00;;;;;;;;;;;13.50;75.20;;;;;;4973054;28;20304;-79
2023/12/09 10:45:26;;;;;;;;;;;13.50;75.20;;;;;;4971483;28;19956;-79
2023/12/09 10:47:51;;;;;;;;;;;13.50;75.20;;;;;;4973309;28;19914;-78
2023/12/09 10:50:17;;;;;;;;;;;13.50;75.20;;;;;;4972897;28;19909;-77
2023/12/09 10:52:42;;;;;;;;;;;13.50;75.30;;;;;;4991605;28;19991;-78
2023/12/09 10:55:07;;;;;;;;;;;13.50;75.30;;;;;;5009920;28;19909;-77
2023/12/09 10:57:33;;;;;;;;;;;13.50;75.30;;;;;;4992143;28;19913;-79
2023/12/09 11:00:00;;;;;;;;;;;13.50;75.20;;;;;;4992651;28;19909;-78
2023/12/09 11:02:26;;;;;;;;;;;13.60;75.20;;;;;;5010695;28;19913;-79
2023/12/09 11:04:52;;;;;;;;;;;13.60;75.20;;;;;;4992741;28;19905;-79
2023/12/09 11:07:17;;;;;;;;;;;13.60;75.10;;;;;;5010493;28;20339;-79
2023/12/09 11:09:44;;;;;;;;;;;13.60;75.00;;;;;;4992475;28;19905;-78
2023/12/09 11:12:09;;;;;;;;;;;13.60;75.50;;;;;;5010502;28;19932;-78
2023/12/09 11:14:36;;;;;;;;;;;13.60;74.90;;;;;;4992673;28;20370;-77
2023/12/09 11:17:02;;;;;;;;;;;13.70;75.00;;;;;;5010240;28;20013;-79
2023/12/09 11:19:27;;;;;;;;;;;13.60;74.90;;;;;;5008979;28;19996;-77
2023/12/09 11:21:53;;;;;;;;;;;13.60;75.00;;;;;;4991862;28;19921;-79
2023/12/09 11:24:19;;;;;;;;;;;13.60;75.10;;;;;;4992093;28;19956;-77
2023/12/09 11:26:45;;;;;;;;;;;13.50;75.20;;;;;;4991871;28;19909;-78
2023/12/09 11:29:12;;;;;;;;;;;13.50;75.30;;;;;;4991753;28;19909;-78
2023/12/09 11:31:38;;;;;;;;;;;13.50;75.40;;;;;;4955058;28;20401;-77
2023/12/09 11:34:07;;;;;;;;;;;13.50;75.50;;;;;;4953328;28;19910;-78
2023/12/09 11:36:38;;;;;;;;;;;13.50;75.60;;;;;;4952857;28;19933;-78
2023/12/09 11:39:17;;;;;;;;;;;13.50;75.60;;;;;;4968707;28;19910;-79
2023/12/09 11:41:43;;;;;;;;;;;13.40;75.60;;;;;;4982963;28;19909;-78
2023/12/09 11:44:09;;;;;;;;;;;13.40;75.70;;;;;;4991853;28;19941;-78
2023/12/09 11:46:35;;;;;;;;;;;13.40;75.80;;;;;;4990454;28;19949;-78
2023/12/09 11:49:01;;;;;;;;;;;13.40;75.80;;;;;;4991825;28;20377;-79
2023/12/09 11:51:27;;;;;;;;;;;13.40;75.80;;;;;;4991840;28;19916;-78
2023/12/09 11:54:00;;;;;;;;;;;13.40;75.90;;;;;;4992217;28;20701;-79
2023/12/09 11:56:26;;;;;;;;;;;13.40;75.90;;;;;;5009601;28;19971;-77
2023/12/09 11:58:52;;;;;;;;;;;13.30;75.80;;;;;;4991944;28;19910;-77
2023/12/09 12:01:18;;;;;;;;;;;13.30;75.90;;;;;;4980512;28;19906;-77
2023/12/09 12:03:47;;;;;;;;;;;13.30;75.60;;;;;;4973995;28;19972;-79
2023/12/09 12:06:14;;;;;;;;;;;13.30;75.70;;;;;;4976844;28;19972;-79
2023/12/09 12:08:40;;;;;;;;;;;13.30;75.80;;;;;;4976695;28;20359;-78
2023/12/09 12:11:06;;;;;;;;;;;13.30;75.90;;;;;;4977052;28;19916;-78
2023/12/09 12:13:32;;;;;;;;;;;13.30;75.90;;;;;;4979138;28;19912;-78
2023/12/09 12:15:57;;;;;;;;;;;13.30;76.00;;;;;;4980551;28;19906;-79
2023/12/09 12:18:23;;;;;;;;;;;13.30;76.00;;;;;;4979752;28;19968;-79
2023/12/09 12:20:48;;;;;;;;;;;13.30;76.00;;;;;;4979885;28;19909;-81
2023/12/09 12:23:14;;;;;;;;;;;13.20;76.10;;;;;;4980056;28;19913;-79
2023/12/09 12:25:40;;;;;;;;;;;13.20;76.10;;;;;;4980219;28;19909;-78
2023/12/09 12:28:05;;;;;;;;;;;13.20;76.30;;;;;;4980488;28;19972;-78
2023/12/09 12:30:31;;;;;;;;;;;13.20;76.20;;;;;;4979625;28;19906;-78
2023/12/09 12:32:56;;;;;;;;;;;13.20;76.20;;;;;;4979837;28;19906;-78
2023/12/09 12:35:22;;;;;;;;;;;13.20;76.10;;;;;;4979858;28;19936;-78
2023/12/09 12:37:48;;;;;;;;;;;13.20;76.10;;;;;;4979644;28;20000;-79
2023/12/09 12:40:14;;;;;;;;;;;13.20;76.10;;;;;;4979625;28;19913;-79
2023/12/09 12:42:40;;;;;;;;;;;13.20;76.20;;;;;;4979400;28;19909;-79
2023/12/09 12:45:24;;;;;;;;;;;13.20;76.20;;;;;;4979541;28;20477;-78
2023/12/09 12:47:50;;;;;;;;;;;13.20;76.30;;;;;;4979525;28;19952;-79
2023/12/09 12:50:16;;;;;;;;;;;13.20;76.30;;;;;;4979338;28;20001;-79
2023/12/09 12:52:42;;;;;;;;;;;13.20;76.30;;;;;;4979688;28;20011;-78
2023/12/09 12:55:08;;;;;;;;;;;13.20;76.30;;;;;;4979514;28;20318;-79
2023/12/09 12:57:34;;;;;;;;;;;13.20;76.30;;;;;;4996765;28;19968;-79
2023/12/09 12:59:59;;;;;;;;;;;13.20;76.30;;;;;;4996213;28;19909;-78
2023/12/09 13:02:24;;;;;;;;;;;13.20;76.30;;;;;;4979165;28;19956;-79
2023/12/09 13:04:50;;;;;;;;;;;13.20;76.30;;;;;;4979601;28;19928;-78
2023/12/09 13:07:15;;;;;;;;;;;13.20;76.40;;;;;;4979360;28;19973;-79
2023/12/09 13:09:41;;;;;;;;;;;13.20;76.40;;;;;;4978769;28;19956;-78
2023/12/09 13:12:07;;;;;;;;;;;13.20;76.20;;;;;;4978877;28;19929;-78
2023/12/09 13:14:33;;;;;;;;;;;13.20;76.40;;;;;;4978264;28;19956;-78
2023/12/09 13:16:59;;;;;;;;;;;13.20;77.70;;;;;;4995226;28;19939;-78
2023/12/09 13:19:24;;;;;;;;;;;13.20;76.30;;;;;;4978425;28;19909;-78
2023/12/09 13:21:49;;;;;;;;;;;13.20;76.10;;;;;;4978486;28;19913;-78
2023/12/09 13:24:15;;;;;;;;;;;13.20;76.00;;;;;;4977145;28;19921;-79
2023/12/09 13:26:40;;;;;;;;;;;13.10;75.90;;;;;;4980489;28;19913;-81
2023/12/09 13:29:06;;;;;;;;;;;13.20;76.10;;;;;;4980398;28;20413;-78
2023/12/09 13:31:31;;;;;;;;;;;13.20;76.00;;;;;;4980561;28;19952;-79
2023/12/09 13:33:57;;;;;;;;;;;13.30;76.00;;;;;;4978648;28;19913;-79
2023/12/09 13:36:23;;;;;;;;;;;13.40;76.00;;;;;;4978709;28;19964;-80
2023/12/09 13:38:48;;;;;;;;;;;13.40;76.00;;;;;;4978356;28;19910;-80
2023/12/09 13:41:14;;;;;;;;;;;13.40;76.40;;;;;;4978142;28;19906;-80
2023/12/09 13:43:39;;;;;;;;;;;13.50;76.40;;;;;;4978060;28;19906;-78
2023/12/09 13:46:04;;;;;;;;;;;13.50;76.50;;;;;;4977975;28;19917;-79
2023/12/09 13:48:30;;;;;;;;;;;13.60;76.90;;;;;;4977957;28;19953;-78
2023/12/09 13:50:55;;;;;;;;;;;13.60;77.10;;;;;;4978162;28;20387;-78
2023/12/09 13:53:21;;;;;;;;;;;13.70;77.50;;;;;;4973867;28;19956;-78
2023/12/09 13:55:46;;;;;;;;;;;13.70;78.00;;;;;;4974727;28;19909;-80
2023/12/09 13:58:12;;;;;;;;;;;13.80;78.80;;;;;;4974733;28;20000;-79
2023/12/09 14:00:37;;;;;;;;;;;13.80;79.60;;;;;;4974369;28;19906;-79
2023/12/09 14:03:03;;;;;;;;;;;13.90;80.20;;;;;;4976023;28;19906;-79
2023/12/09 14:05:28;;;;;;;;;;;14.00;80.50;;;;;;4974853;28;19906;-79
2023/12/09 14:07:54;;;;;;;;;;;14.10;81.10;;;;;;4975814;28;20363;-79